Time;durP1;ratioP1;P1;durP2;ratioP2;P2;SDS_P1;SDS_P2;PMS_P1;PMS_P2;Temp;Humidity;BMP_temperature;BMP_pressure;BME280_temperature;BME280_humidity;BME280_pressure;Samples;Min_cycle;Max_cycle;Signal;HPM_P1;HPM_P2
2023/10/11 00:00:46;;;;;;;11.60;5.17;;;;;;;18.66;88.06;101382.25;5230549;28;20032;-69
2023/10/11 00:03:28;;;;;;;6.88;4.75;;;;;;;18.68;88.46;101374.97;5244050;28;20639;-68
2023/10/11 00:06:00;;;;;;;10.23;4.63;;;;;;;18.67;85.73;101375.97;5242674;28;20038;-68
2023/10/11 00:08:39;;;;;;;8.40;4.80;;;;;;;18.61;86.21;101380.81;5228643;28;20033;-68
2023/10/11 00:11:15;;;;;;;9.23;4.60;;;;;;;18.53;86.01;101363.88;5229665;28;20032;-68
2023/10/11 00:13:49;;;;;;;8.13;5.03;;;;;;;18.59;86.45;101377.47;5229722;28;20104;-68
2023/10/11 00:16:21;;;;;;;8.97;3.93;;;;;;;18.56;85.65;101380.38;5229777;28;20567;-68
2023/10/11 00:18:55;;;;;;;10.83;4.73;;;;;;;18.53;86.37;101379.81;5230265;28;20018;-68
2023/10/11 00:21:42;;;;;;;10.80;4.22;;;;;;;18.50;86.93;101380.91;5230316;28;20033;-68
2023/10/11 00:24:13;;;;;;;9.60;4.60;;;;;;;18.49;87.66;101373.91;5230624;28;20057;-68
2023/10/11 00:26:49;;;;;;;10.57;4.60;;;;;;;18.46;88.11;101379.50;5233889;28;20063;-68
2023/10/11 00:29:20;;;;;;;9.50;4.37;;;;;;;18.42;89.03;101367.44;5232700;28;20025;-69
2023/10/11 00:31:52;;;;;;;10.33;4.90;;;;;;;18.38;91.18;101373.03;5234493;28;20022;-68
2023/10/11 00:34:24;;;;;;;11.70;5.03;;;;;;;18.41;89.90;101379.88;5233275;28;20103;-68
2023/10/11 00:36:58;;;;;;;11.77;5.33;;;;;;;18.42;89.24;101378.06;5233614;28;20056;-68
2023/10/11 00:39:31;;;;;;;9.10;4.60;;;;;;;18.38;88.52;101367.72;5234298;28;20033;-69
2023/10/11 00:42:02;;;;;;;9.68;4.63;;;;;;;18.41;89.11;101373.75;5231089;28;20083;-68
2023/10/11 00:44:34;;;;;;;9.37;4.73;;;;;;;18.35;90.24;101365.34;5230648;28;20029;-68
2023/10/11 00:47:08;;;;;;;7.90;4.57;;;;;;;18.33;90.04;101361.97;5232639;28;20073;-69
2023/10/11 00:49:39;;;;;;;8.05;4.57;;;;;;;18.32;90.33;101365.59;5220452;28;20615;-68
2023/10/11 00:52:13;;;;;;;10.33;4.97;;;;;;;18.33;90.24;101369.91;5234176;28;20022;-68
2023/10/11 00:54:46;;;;;;;7.82;4.70;;;;;;;18.30;92.31;101366.69;5233418;28;20504;-68
2023/10/11 00:57:18;;;;;;;10.73;5.10;;;;;;;18.27;91.96;101365.16;5233924;28;20118;-69
2023/10/11 00:59:49;;;;;;;7.97;4.23;;;;;;;18.24;93.22;101368.03;5232836;28;20032;-68
2023/10/11 01:02:21;;;;;;;10.50;5.20;;;;;;;18.23;93.64;101361.06;5233645;28;20049;-68
2023/10/11 01:04:53;;;;;;;8.80;5.40;;;;;;;18.20;94.33;101374.59;5233533;28;20025;-69
2023/10/11 01:07:25;;;;;;;10.33;4.90;;;;;;;18.18;93.96;101369.41;5232719;28;20029;-68
2023/10/11 01:09:57;;;;;;;8.40;5.07;;;;;;;18.06;94.62;101351.88;5221759;22;20088;-77
2023/10/11 01:12:28;;;;;;;8.47;4.67;;;;;;;17.69;95.03;101297.50;5197793;28;20068;-77
2023/10/11 01:15:01;;;;;;;7.23;4.33;;;;;;;17.65;96.52;101305.69;5209923;28;20109;-78
2023/10/11 01:17:32;;;;;;;11.00;4.67;;;;;;;17.77;96.05;101317.06;5212571;28;20030;-77
2023/10/11 01:20:13;;;;;;;9.33;4.93;;;;;;;17.69;97.29;101310.72;5211531;28;20025;-77
2023/10/11 01:22:45;;;;;;;12.00;5.03;;;;;;;17.70;97.02;101315.09;5210996;28;20045;-77
2023/10/11 01:25:19;;;;;;;9.27;5.00;;;;;;;17.74;97.39;101327.09;5211442;28;20067;-77
2023/10/11 01:27:50;;;;;;;9.23;4.43;;;;;;;17.94;97.79;101353.75;5211597;28;20672;-77
2023/10/11 01:30:24;;;;;;;9.23;5.03;;;;;;;17.66;98.76;101328.56;5211247;28;20071;-78
2023/10/11 01:32:55;;;;;;;10.90;5.78;;;;;;;17.74;98.02;101335.03;5212059;28;20075;-76
2023/10/11 01:35:35;;;;;;;9.17;4.40;;;;;;;17.57;99.55;101318.75;5226750;28;20045;-77
2023/10/11 01:38:07;;;;;;;10.43;4.80;;;;;;;17.49;99.95;101302.66;5211617;28;20030;-76
2023/10/11 01:40:40;;;;;;;7.90;4.27;;;;;;;17.47;100.00;101299.28;5212528;28;20123;-76
2023/10/11 01:43:12;;;;;;;10.48;4.95;;;;;;;17.48;100.00;101308.91;5222099;28;20558;-76
2023/10/11 01:45:44;;;;;;;7.53;4.93;;;;;;;17.51;100.00;101320.09;5225275;28;20127;-78
2023/10/11 01:48:17;;;;;;;8.53;4.50;;;;;;;17.46;100.00;101297.59;5211668;28;20472;-78
2023/10/11 01:50:49;;;;;;;8.47;4.40;;;;;;;17.49;100.00;101315.91;5211422;28;20117;-78
2023/10/11 01:53:21;;;;;;;9.70;5.13;;;;;;;17.51;100.00;101313.94;5210203;28;20036;-79
2023/10/11 01:55:55;;;;;;;12.53;4.70;;;;;;;17.45;100.00;101319.75;5210356;28;20022;-79
2023/10/11 01:58:28;;;;;;;12.13;5.07;;;;;;;17.60;100.00;101336.19;5210336;28;20053;-77
2023/10/11 02:01:03;;;;;;;11.88;4.90;;;;;;;17.44;100.00;101320.72;5213369;28;20017;-79
2023/10/11 02:04:23;;;;;;;6.93;4.10;;;;;;;17.24;100.00;101294.06;5214857;28;20065;-79
2023/10/11 02:06:47;;;;;;;;;;;;;;;;;;;;;
2023/10/11 02:12:45;;;;;;;;;;;;;;;;;;;;;
2023/10/11 02:15:49;;;;;;;10.47;4.70;;;;;;;17.29;100.00;101262.75;5202025;28;20033;-78
2023/10/11 02:18:36;;;;;;;9.60;5.13;;;;;;;17.30;100.00;101275.03;5216103;28;20026;-78
2023/10/11 02:21:53;;;;;;;9.93;4.67;;;;;;;17.37;100.00;101310.63;5214206;28;20144;-78
2023/10/11 02:24:36;;;;;;;13.43;4.87;;;;;;;17.45;100.00;101302.06;5221323;28;20038;-79
2023/10/11 02:27:17;;;;;;;9.63;5.57;;;;;;;17.22;100.00;101278.31;5211575;28;20025;-78
2023/10/11 02:30:06;;;;;;;13.20;5.53;;;;;;;17.32;100.00;101294.28;5216195;28;20030;-78
2023/10/11 02:32:58;;;;;;;10.20;5.23;;;;;;;17.06;100.00;101233.69;5231880;28;20145;-79
2023/10/11 02:35:34;;;;;;;9.77;4.67;;;;;;;17.07;100.00;101269.75;5209751;28;20425;-78
2023/10/11 02:38:09;;;;;;;8.03;4.90;;;;;;;17.01;100.00;101262.34;5210048;28;20026;-78
2023/10/11 02:40:41;;;;;;;11.43;6.80;;;;;;;17.08;100.00;101279.41;5210138;28;20048;-78
2023/10/11 02:43:12;;;;;;;9.77;5.30;;;;;;;16.96;100.00;101262.72;5209636;28;20029;-78
2023/10/11 02:45:46;;;;;;;8.07;4.57;;;;;;;16.89;100.00;101249.16;5209773;28;20049;-78
2023/10/11 02:48:20;;;;;;;10.40;5.20;;;;;;;16.98;100.00;101267.88;5209350;28;20053;-78
2023/10/11 02:50:54;;;;;;;8.10;4.53;;;;;;;17.03;100.00;101284.22;5209202;28;20014;-78
2023/10/11 02:53:26;;;;;;;11.52;5.40;;;;;;;16.97;100.00;101282.06;5211168;28;20022;-77
2023/10/11 02:56:03;;;;;;;11.33;6.10;;;;;;;17.00;100.00;101273.91;5210022;28;20028;-78
2023/10/11 02:58:38;;;;;;;8.47;4.83;;;;;;;16.86;100.00;101254.66;5208874;28;20079;-76
2023/10/11 03:01:20;;;;;;;8.63;4.80;;;;;;;16.81;100.00;101256.84;5208041;28;20030;-77
2023/10/11 03:03:54;;;;;;;10.00;5.77;;;;;;;16.97;100.00;101282.06;5208589;28;20366;-77
2023/10/11 03:06:27;;;;;;;9.60;5.10;;;;;;;16.80;100.00;101255.16;5208201;28;20030;-78
2023/10/11 03:08:58;;;;;;;14.37;5.53;;;;;;;16.74;100.00;101250.38;5209504;28;20042;-78
2023/10/11 03:11:30;;;;;;;9.40;4.93;;;;;;;16.67;100.00;101250.84;5209738;28;20131;-77
2023/10/11 03:14:04;;;;;;;11.23;5.47;;;;;;;16.66;100.00;101241.25;5207087;28;20022;-77
2023/10/11 03:16:35;;;;;;;9.18;5.50;;;;;;;16.76;100.00;101257.22;5210058;28;20528;-77
2023/10/11 03:19:07;;;;;;;11.60;6.47;;;;;;;16.57;100.00;101212.88;5208190;28;20072;-78
2023/10/11 03:21:38;;;;;;;12.13;6.23;;;;;;;16.91;100.00;101268.34;5238213;28;20025;-78
2023/10/11 03:24:11;;;;;;;9.47;5.70;;;;;;;16.71;100.00;101232.09;5208476;28;20121;-78
2023/10/11 03:26:43;;;;;;;10.37;5.97;;;;;;;16.66;100.00;101230.66;5208097;28;20025;-78
2023/10/11 03:29:17;;;;;;;13.20;5.90;;;;;;;16.63;100.00;101236.22;5207580;28;20121;-78
2023/10/11 03:31:49;;;;;;;;;;;;;;;17.28;100.00;101277.78;5210307;28;20628;-78
2023/10/11 03:34:20;;;;;;;10.50;5.20;;;;;;;16.73;100.00;101243.41;5208532;28;19917;-78
2023/10/11 03:36:52;;;;;;;11.33;5.67;;;;;;;16.55;100.00;101222.75;5209729;28;20741;-77
2023/10/11 03:42:07;;;;;;;11.87;6.00;;;;;;;16.60;100.00;101233.78;5205621;28;20081;-78
2023/10/11 03:44:46;;;;;;;9.47;5.23;;;;;;;16.52;100.00;101241.50;5207526;28;20025;-77
2023/10/11 03:47:24;;;;;;;10.60;5.50;;;;;;;16.52;100.00;101225.63;5210207;28;20068;-77
2023/10/11 03:49:55;;;;;;;8.23;5.60;;;;;;;16.49;100.00;101232.03;5209391;28;20042;-77
2023/10/11 03:52:32;;;;;;;9.27;5.37;;;;;;;16.32;100.00;101209.53;5209470;28;20076;-78
2023/10/11 03:55:09;;;;;;;11.07;6.57;;;;;;;16.37;100.00;101223.22;5208055;28;20036;-78
2023/10/11 03:57:41;;;;;;;10.83;5.87;;;;;;;16.33;100.00;101237.66;5208051;28;20037;-78
2023/10/11 04:02:58;;;;;;;12.63;5.67;;;;;;;16.69;100.00;101258.66;5213020;28;20030;-77
2023/10/11 04:05:34;;;;;;;13.37;6.20;;;;;;;16.44;100.00;101229.72;5212309;28;20091;-77
2023/10/11 04:08:11;;;;;;;11.43;5.50;;;;;;;16.59;100.00;101247.97;5213072;28;20022;-77
2023/10/11 04:10:46;;;;;;;10.93;6.70;;;;;;;16.24;100.00;101218.09;5212323;28;20393;-76
2023/10/11 04:13:24;;;;;;;9.77;6.43;;;;;;;16.51;100.00;101239.81;5211221;28;20473;-77
2023/10/11 04:15:59;;;;;;;11.00;5.20;;;;;;;16.35;100.00;101214.59;5213443;28;20034;-77
2023/10/11 04:18:36;;;;;;;12.65;6.25;;;;;;;16.49;100.00;101237.31;5212030;28;20520;-77
2023/10/11 04:23:45;;;;;;;9.70;5.85;;;;;;;16.53;100.00;101244.00;5213393;28;20038;-77
2023/10/11 04:26:23;;;;;;;12.73;6.37;;;;;;;16.31;100.00;101202.59;5212881;28;20100;-78
2023/10/11 04:28:54;;;;;;;16.27;7.27;;;;;;;16.46;100.00;101237.53;5211077;28;20034;-78
2023/10/11 04:31:31;;;;;;;12.47;6.53;;;;;;;16.37;100.00;101217.13;5211149;28;20078;-78
2023/10/11 04:34:11;;;;;;;9.60;6.17;;;;;;;16.25;100.00;101211.00;5212387;28;20425;-78
2023/10/11 04:36:42;;;;;;;11.83;6.47;;;;;;;16.35;100.00;101225.19;5212577;28;20021;-78
2023/10/11 04:39:16;;;;;;;10.40;6.20;;;;;;;16.18;100.00;101200.91;5226001;28;20045;-77
2023/10/11 04:41:52;;;;;;;11.60;6.57;;;;;;;16.13;100.00;101181.09;5220721;28;21010;-77
2023/10/11 04:44:30;;;;;;;10.70;6.60;;;;;;;16.03;100.00;101199.47;5225190;28;20029;-77
2023/10/11 04:47:02;;;;;;;17.13;7.10;;;;;;;16.04;100.00;101201.97;5224578;28;20143;-78
2023/10/11 04:49:34;;;;;;;11.40;6.07;;;;;;;16.19;100.00;101230.81;5215287;28;20033;-77
2023/10/11 04:52:17;;;;;;;10.37;6.77;;;;;;;16.10;100.00;101216.53;5237857;28;20025;-78
2023/10/11 04:54:55;;;;;;;16.80;6.87;;;;;;;16.29;100.00;101225.63;5220809;28;20048;-78
2023/10/11 04:57:40;;;;;;;12.87;7.03;;;;;;;16.13;100.00;101200.41;5213958;28;20060;-77
2023/10/11 05:00:17;;;;;;;11.20;6.83;;;;;;;16.24;100.00;101249.78;5211785;28;20464;-78
2023/10/11 05:02:58;;;;;;;10.20;6.57;;;;;;;16.05;100.00;101208.09;5211399;28;20022;-77
2023/10/11 05:05:29;;;;;;;11.73;7.03;;;;;;;16.00;100.00;101215.56;5214258;28;20021;-77
2023/10/11 05:08:20;;;;;;;10.60;6.93;;;;;;;16.05;100.00;101227.44;5224870;28;20018;-77
2023/10/11 05:10:52;;;;;;;14.70;6.33;;;;;;;16.20;100.00;101235.97;5164667;28;20047;-78
2023/10/11 05:13:36;;;;;;;11.00;6.97;;;;;;;16.17;100.00;101233.59;5169898;28;20522;-77
2023/10/11 05:16:07;;;;;;;11.73;7.27;;;;;;;15.95;100.00;101207.97;5171094;28;20168;-76
2023/10/11 05:18:39;;;;;;;11.97;6.93;;;;;;;16.10;100.00;101240.28;5171871;28;20121;-76
2023/10/11 05:21:14;;;;;;;12.73;7.27;;;;;;;15.99;100.00;101219.97;5171566;28;20050;-77
2023/10/11 05:52:07;;;;;;;14.53;7.73;;;;;;;15.89;100.00;101216.34;5164909;28;21108;-77
2023/10/11 05:54:40;;;;;;;18.27;8.03;;;;;;;16.01;100.00;101243.63;5168147;28;20125;-78
2023/10/11 05:57:13;;;;;;;16.40;7.87;;;;;;;15.77;100.00;101210.19;5169883;28;20031;-77
2023/10/11 05:59:47;;;;;;;13.07;8.43;;;;;;;15.72;100.00;101214.06;5169722;28;20035;-77
2023/10/11 06:02:19;;;;;;;13.23;7.43;;;;;;;15.93;100.00;101255.63;5182561;28;20050;-77
2023/10/11 06:04:50;;;;;;;13.20;6.70;;;;;;;15.95;100.00;101258.97;5171469;28;20471;-78
2023/10/11 06:07:21;;;;;;;13.73;7.20;;;;;;;15.83;100.00;101247.53;5169644;28;20113;-77
2023/10/11 06:09:53;;;;;;;13.93;7.17;;;;;;;15.70;100.00;101231.81;5197661;28;20470;-78
2023/10/11 06:12:26;;;;;;;13.77;8.20;;;;;;;15.72;100.00;101216.69;5208560;28;20030;-77
2023/10/11 06:15:03;;;;;;;15.00;7.40;;;;;;;16.05;100.00;101271.50;5212650;28;20029;-77
2023/10/11 06:17:41;;;;;;;12.10;7.77;;;;;;;15.76;100.00;101225.19;5211102;28;20033;-77
2023/10/11 06:20:26;;;;;;;17.97;7.70;;;;;;;15.99;100.00;101262.25;5210245;28;20607;-77
2023/10/11 06:23:02;;;;;;;12.77;7.47;;;;;;;15.93;100.00;101260.06;5210103;28;20109;-77
2023/10/11 06:25:53;;;;;;;11.83;7.37;;;;;;;15.99;100.00;101256.97;5199015;28;20696;-77
2023/10/11 06:28:30;;;;;;;12.83;7.60;;;;;;;15.87;100.00;101229.66;5198642;28;20037;-78
2023/10/11 06:31:02;;;;;;;16.33;9.40;;;;;;;15.77;100.00;101207.56;5208836;28;20044;-77
2023/10/11 06:33:34;;;;;;;13.33;7.40;;;;;;;15.72;100.00;101192.94;5209992;28;20025;-78
2023/10/11 06:36:14;;;;;;;17.70;7.50;;;;;;;15.94;100.00;101227.38;5208637;28;20036;-78
2023/10/11 06:38:45;;;;;;;15.07;9.43;;;;;;;15.90;100.00;101226.78;5210358;28;20041;-77
2023/10/11 06:41:45;;;;;;;15.37;7.63;;;;;;;15.97;100.00;101221.88;5200518;28;20038;-77
2023/10/11 06:44:18;;;;;;;14.47;7.33;;;;;;;16.00;100.00;101244.59;5196991;28;20028;-77
2023/10/11 06:46:50;;;;;;;11.73;7.23;;;;;;;16.21;100.00;101273.81;5202754;28;20033;-76
2023/10/11 06:49:23;;;;;;;11.70;7.70;;;;;;;16.08;100.00;101236.94;5206871;28;20036;-76
2023/10/11 06:51:57;;;;;;;18.13;7.80;;;;;;;16.14;100.00;101244.41;5209491;28;20125;-76
2023/10/11 06:54:32;;;;;;;13.50;7.73;;;;;;;15.96;100.00;101210.47;5201139;28;20049;-76
2023/10/11 06:57:03;;;;;;;16.87;7.27;;;;;;;16.04;100.00;101217.00;5200257;28;20030;-76
2023/10/11 06:59:35;;;;;;;12.33;7.27;;;;;;;16.20;100.00;101235.13;5204373;28;20045;-75
2023/10/11 07:02:17;;;;;;;12.13;8.10;;;;;;;16.28;100.00;101245.13;5206240;28;20037;-75
2023/10/11 07:04:52;;;;;;;14.40;8.57;;;;;;;16.07;100.00;101201.75;5205198;28;20054;-76
2023/10/11 07:07:26;;;;;;;13.40;7.75;;;;;;;16.28;100.00;101237.19;5206136;28;20030;-76
2023/10/11 07:09:57;;;;;;;12.23;7.57;;;;;;;16.33;100.00;101235.88;5204527;28;20076;-76
2023/10/11 07:12:29;;;;;;;14.27;8.27;;;;;;;16.40;100.00;101254.72;5203763;28;20038;-76
2023/10/11 07:15:00;;;;;;;15.07;7.27;;;;;;;16.40;100.00;101253.88;5204993;28;20130;-77
2023/10/11 07:17:32;;;;;;;18.77;7.60;;;;;;;16.52;100.00;101262.66;5205395;28;20026;-77
2023/10/11 07:20:47;;;;;;;12.67;7.50;;;;;;;16.51;100.00;101266.25;5202144;28;20061;-76
2023/10/11 07:22:55;;;;;;;13.93;8.10;;;;;;;16.57;100.00;101271.91;5204356;28;20040;-76
2023/10/11 07:25:38;;;;;;;14.27;7.83;;;;;;;16.60;100.00;101276.09;5205597;28;20022;-75
2023/10/11 07:28:11;;;;;;;14.33;7.53;;;;;;;16.69;100.00;101288.59;5206377;28;20036;-75
2023/10/11 07:30:42;;;;;;;16.00;8.43;;;;;;;16.64;100.00;101277.53;5208878;28;20026;-75
2023/10/11 07:33:14;;;;;;;14.17;7.43;;;;;;;16.64;100.00;101272.25;5209130;28;20036;-76
2023/10/11 07:35:46;;;;;;;14.63;7.87;;;;;;;16.79;100.00;101285.25;5209509;28;20030;-75
2023/10/11 07:41:48;;;;;;;15.13;8.37;;;;;;;17.12;100.00;101291.44;5202934;28;20120;-76
2023/10/11 07:44:20;;;;;;;11.57;8.27;;;;;;;17.33;100.00;101317.13;5206891;28;20034;-75
2023/10/11 07:46:54;;;;;;;13.00;8.40;;;;;;;17.34;100.00;101312.69;5207324;28;20025;-77
2023/10/11 07:49:26;;;;;;;19.07;7.67;;;;;;;17.46;100.00;101314.31;5204697;28;20478;-75
2023/10/11 07:52:00;;;;;;;15.53;8.83;;;;;;;17.39;100.00;101287.50;5206346;28;20153;-75
2023/10/11 07:54:32;;;;;;;12.52;8.25;;;;;;;17.33;100.00;101263.34;5207290;28;20681;-75
2023/10/11 07:57:04;;;;;;;15.90;7.70;;;;;;;17.64;100.00;101304.03;5204366;28;20022;-75
2023/10/11 07:59:39;;;;;;;10.57;7.00;;;;;;;17.88;100.00;101313.53;5206525;28;20032;-76
2023/10/11 08:02:26;;;;;;;24.37;9.33;;;;;;;17.85;100.00;101297.91;5206307;28;20112;-76
2023/10/11 08:04:58;;;;;;;12.73;8.37;;;;;;;17.98;100.00;101295.03;5205622;28;20567;-75
2023/10/11 08:07:29;;;;;;;18.10;8.63;;;;;;;17.98;100.00;101257.94;5207073;28;20037;-75
2023/10/11 08:10:28;;;;;;;11.47;7.60;;;;;;;18.47;100.00;101291.00;5207308;28;20387;-76
2023/10/11 08:12:52;;;;;;;14.10;8.33;;;;;;;18.52;100.00;101283.47;5205456;28;20038;-75
2023/10/11 08:15:25;;;;;;;17.03;8.40;;;;;;;18.52;100.00;101285.31;5206807;28;20037;-76
2023/10/11 08:17:56;;;;;;;13.07;8.13;;;;;;;18.58;100.00;101287.41;5207247;28;20022;-77
2023/10/11 08:20:28;;;;;;;14.30;8.10;;;;;;;18.68;100.00;101287.44;5206665;28;20349;-75
2023/10/11 08:23:01;;;;;;;17.60;8.93;;;;;;;18.83;100.00;101306.50;5206117;28;20058;-75
2023/10/11 08:25:39;;;;;;;15.43;9.00;;;;;;;18.64;100.00;101278.09;5207176;28;20432;-75
2023/10/11 08:28:15;;;;;;;13.23;8.30;;;;;;;18.94;100.00;101329.41;5205381;28;20021;-76
2023/10/11 08:30:47;;;;;;;13.93;8.43;;;;;;;18.79;100.00;101305.91;5206639;28;20021;-76
2023/10/11 08:33:18;;;;;;;13.27;8.47;;;;;;;18.73;100.00;101298.47;5205834;28;20084;-75
2023/10/11 08:35:53;;;;;;;15.33;8.50;;;;;;;18.82;100.00;101308.28;5206956;28;20030;-75
2023/10/11 08:38:24;;;;;;;15.97;7.60;;;;;;;18.89;100.00;101284.72;5205647;28;20029;-75
2023/10/11 08:40:59;;;;;;;14.93;8.90;;;;;;;19.07;100.00;101289.34;5205560;28;20030;-75
2023/10/11 08:43:30;;;;;;;;;;;;;;;20.58;100.00;101338.59;5205231;28;20466;-76
2023/10/11 08:46:05;;;;;;;16.27;7.40;;;;;;;20.23;100.00;101274.47;5207350;28;20224;-75
2023/10/11 08:48:39;;;;;;;12.63;7.87;;;;;;;20.84;100.00;101321.94;5210216;28;20029;-75
2023/10/11 08:51:12;;;;;;;;;;;;;;;22.14;100.00;101343.13;5210480;28;20053;-75
2023/10/11 08:53:47;;;;;;;15.67;7.30;;;;;;;22.28;98.19;101333.72;5210010;28;19909;-75
2023/10/11 08:56:18;;;;;;;20.27;7.68;;;;;;;22.46;90.67;101305.13;5208449;28;20116;-75
2023/10/11 08:58:53;;;;;;;13.82;7.07;;;;;;;22.16;93.51;101304.66;5209582;28;20449;-75
2023/10/11 09:01:24;;;;;;;18.40;7.97;;;;;;;21.92;96.18;101318.66;5209039;28;20029;-75
2023/10/11 09:04:11;;;;;;;16.38;7.55;;;;;;;22.30;100.00;101313.91;5210321;28;20040;-75
2023/10/11 09:06:44;;;;;;;12.80;6.82;;;;;;;22.06;93.15;101310.09;5209669;28;20053;-75
2023/10/11 09:09:41;;;;;;;13.73;7.27;;;;;;;22.13;98.84;101304.97;5207667;28;20207;-76
2023/10/11 09:12:24;;;;;;;17.70;8.10;;;;;;;21.47;100.00;101335.44;5208914;28;20026;-75
2023/10/11 09:15:00;;;;;;;15.02;7.82;;;;;;;21.44;100.00;101333.09;5208146;28;20426;-75
2023/10/11 09:17:39;;;;;;;16.88;9.65;;;;;;;21.09;100.00;101300.09;5208723;28;20144;-75
2023/10/11 09:20:40;;;;;;;18.58;10.52;;;;;;;21.23;100.00;101296.94;5212451;28;20021;-74
2023/10/11 09:23:02;;;;;;;14.93;9.23;;;;;;;21.18;100.00;101304.53;5212969;28;20048;-74
2023/10/11 09:26:01;;;;;;;14.85;9.63;;;;;;;21.28;100.00;101305.31;5213689;28;20108;-75
2023/10/11 09:28:33;;;;;;;16.70;11.48;;;;;;;20.89;100.00;101308.22;5209647;28;20504;-76
2023/10/11 09:31:12;;;;;;;20.02;11.13;;;;;;;21.11;100.00;101354.06;5211718;28;20474;-76
2023/10/11 09:33:55;;;;;;;19.77;11.23;;;;;;;20.48;100.00;101305.88;5209489;28;20025;-75
2023/10/11 09:36:31;;;;;;;20.23;11.50;;;;;;;20.41;100.00;101316.25;5209396;28;20030;-76
2023/10/11 09:39:03;;;;;;;22.47;12.87;;;;;;;20.38;100.00;101332.50;5206057;28;20532;-75
2023/10/11 09:41:40;;;;;;;14.87;11.03;;;;;;;20.31;100.00;101340.25;5209093;28;20040;-76
2023/10/11 09:44:14;;;;;;;14.17;11.37;;;;;;;20.05;100.00;101327.56;5209145;28;20095;-75
2023/10/11 09:46:47;;;;;;;;;;;;;;;21.07;100.00;101374.81;5207896;28;20229;-75
2023/10/11 09:49:21;;;;;;;18.53;11.63;;;;;;;20.25;100.00;101356.75;5208564;28;20117;-76
2023/10/11 09:51:53;;;;;;;16.63;12.23;;;;;;;19.95;100.00;101320.41;5208592;28;20033;-75
2023/10/11 09:54:27;;;;;;;19.97;14.13;;;;;;;20.00;100.00;101321.81;5194805;28;20463;-76
2023/10/11 09:57:13;;;;;;;17.95;11.63;;;;;;;20.14;100.00;101328.53;5207630;28;20037;-75
2023/10/11 09:59:47;;;;;;;22.23;14.23;;;;;;;20.27;100.00;101354.78;5196684;28;20030;-75
2023/10/11 10:02:29;;;;;;;21.87;14.00;;;;;;;20.06;100.00;101313.28;5208314;28;20029;-76
2023/10/11 10:05:05;;;;;;;23.07;12.97;;;;;;;19.96;100.00;101318.59;5208251;28;20032;-76
2023/10/11 10:10:15;;;;;;;22.03;14.53;;;;;;;20.18;100.00;101369.78;5208443;28;20112;-75
2023/10/11 10:13:00;;;;;;;25.80;16.33;;;;;;;20.10;100.00;101356.38;5207929;28;20013;-75
2023/10/11 10:15:46;;;;;;;23.37;14.43;;;;;;;19.97;100.00;101325.56;5208260;28;20026;-75
2023/10/11 10:18:19;;;;;;;28.47;15.67;;;;;;;19.85;100.00;101366.56;5196157;28;20022;-76
2023/10/11 10:21:02;;;;;;;24.90;16.67;;;;;;;19.87;100.00;101349.53;5207687;28;20061;-75
2023/10/11 10:23:37;;;;;;;27.43;16.83;;;;;;;19.64;100.00;101346.31;5208736;28;20022;-76
2023/10/11 10:26:11;;;;;;;22.73;16.50;;;;;;;19.94;100.00;101392.31;5207909;28;20194;-76
2023/10/11 10:28:45;;;;;;;22.73;18.10;;;;;;;19.85;100.00;101401.13;5207302;28;20022;-76
2023/10/11 10:31:19;;;;;;;27.10;18.40;;;;;;;19.87;100.00;101391.19;5207660;28;20435;-76
2023/10/11 10:34:04;;;;;;;;;;;;;;;20.39;100.00;101388.22;5208958;28;20061;-76
2023/10/11 10:36:37;;;;;;;24.92;16.33;;;;;;;19.71;100.00;101358.06;5208388;28;20358;-74
2023/10/11 10:41:44;;;;;;;29.70;17.57;;;;;;;19.41;100.00;101323.50;5206404;28;20064;-75
2023/10/11 10:44:17;;;;;;;24.83;17.27;;;;;;;19.57;100.00;101360.16;5208134;28;20473;-75
2023/10/11 10:46:51;;;;;;;25.30;17.30;;;;;;;19.47;100.00;101335.41;5208009;28;20667;-75
2023/10/11 10:49:40;;;;;;;20.80;15.93;;;;;;;19.31;100.00;101317.34;5208341;28;20018;-75
2023/10/11 10:52:19;;;;;;;28.60;17.03;;;;;;;19.41;100.00;101331.47;5206902;28;20026;-76
2023/10/11 10:55:03;;;;;;;33.33;17.50;;;;;;;19.38;100.00;101323.78;5207356;28;20470;-76
2023/10/11 10:57:41;;;;;;;25.77;16.15;;;;;;;19.18;100.00;101330.91;5206773;28;20397;-76
2023/10/11 11:00:22;;;;;;;23.83;16.23;;;;;;;19.56;100.00;101355.84;5206739;28;20038;-76
2023/10/11 11:02:56;;;;;;;27.17;17.13;;;;;;;19.36;100.00;101327.59;5206310;28;20101;-76
2023/10/11 11:05:29;;;;;;;25.60;16.52;;;;;;;19.63;100.00;101358.78;5205646;28;20117;-76
2023/10/11 11:08:21;;;;;;;27.10;17.60;;;;;;;19.74;100.00;101351.63;5205222;28;20124;-76
2023/10/11 11:11:19;;;;;;;30.17;18.63;;;;;;;19.74;100.00;101347.13;5205554;28;20030;-76
2023/10/11 11:13:51;;;;;;;26.63;16.77;;;;;;;19.70;100.00;101361.69;5205809;28;20095;-76
2023/10/11 11:16:29;;;;;;;30.93;18.00;;;;;;;19.44;100.00;101330.38;5207296;28;20424;-75
2023/10/11 11:19:16;;;;;;;21.63;15.17;;;;;;;19.83;100.00;101356.09;5205775;28;20113;-75
2023/10/11 11:21:47;;;;;;;25.90;16.70;;;;;;;19.51;100.00;101304.94;5208000;28;20396;-75
2023/10/11 11:24:27;;;;;;;22.90;15.27;;;;;;;19.54;100.00;101291.38;5205710;28;20022;-75
2023/10/11 11:26:59;;;;;;;23.97;15.07;;;;;;;19.69;100.00;101306.88;5205415;28;20382;-75
2023/10/11 11:29:31;;;;;;;26.43;16.33;;;;;;;19.57;100.00;101299.06;5207868;28;20032;-75
2023/10/11 11:32:14;;;;;;;23.67;14.73;;;;;;;19.49;100.00;101293.63;5206808;28;20080;-75
2023/10/11 11:35:02;;;;;;;26.98;13.75;;;;;;;20.02;100.00;101335.81;5207386;28;20914;-75
2023/10/11 11:37:38;;;;;;;23.27;14.83;;;;;;;19.74;100.00;101322.41;5194259;28;20025;-76
2023/10/11 11:40:23;;;;;;;23.70;15.27;;;;;;;19.53;100.00;101291.50;5205562;28;20025;-75
2023/10/11 11:42:55;;;;;;;21.17;14.23;;;;;;;19.55;100.00;101286.88;5204697;28;20022;-75
2023/10/11 11:45:29;;;;;;;26.07;15.30;;;;;;;19.54;100.00;101267.47;5206741;28;20037;-75
2023/10/11 11:48:05;;;;;;;20.97;14.87;;;;;;;19.57;100.00;101250.38;5206726;28;20022;-75
2023/10/11 11:50:37;;;;;;;24.77;15.63;;;;;;;19.61;100.00;101265.06;5207513;28;20064;-76
2023/10/11 11:53:08;;;;;;;23.50;15.10;;;;;;;19.80;100.00;101293.44;5206872;28;20018;-75
2023/10/11 11:55:41;;;;;;;25.23;15.37;;;;;;;19.58;100.00;101247.59;5206926;28;20040;-75
2023/10/11 11:58:15;;;;;;;19.83;14.93;;;;;;;19.66;100.00;101280.59;5206272;28;20049;-75
2023/10/11 12:01:08;;;;;;;23.27;14.37;;;;;;;19.97;100.00;101314.94;5206332;28;20893;-75
2023/10/11 12:03:38;;;;;;;23.43;14.00;;;;;;;19.65;100.00;101262.97;5206556;28;20413;-75
2023/10/11 12:06:21;;;;;;;22.73;15.47;;;;;;;19.71;100.00;101265.06;5206876;28;20101;-75
2023/10/11 12:09:00;;;;;;;19.17;13.80;;;;;;;19.76;100.00;101225.59;5206717;28;20541;-75
2023/10/11 12:11:31;;;;;;;19.93;14.07;;;;;;;19.99;100.00;101259.81;5192314;28;20025;-75
2023/10/11 12:14:04;;;;;;;26.80;12.93;;;;;;;20.07;100.00;101240.53;5206239;28;20370;-75
2023/10/11 12:16:41;;;;;;;21.20;13.37;;;;;;;20.24;100.00;101252.22;5206775;28;20030;-75
2023/10/11 12:19:14;;;;;;;17.50;13.20;;;;;;;20.26;100.00;101236.97;5206023;28;20100;-75
2023/10/11 12:21:46;;;;;;;24.60;13.60;;;;;;;20.37;100.00;101224.47;5208845;28;20410;-76
2023/10/11 12:24:17;;;;;;;20.23;13.67;;;;;;;20.39;100.00;101211.81;5209468;28;20111;-76
2023/10/11 12:26:48;;;;;;;18.20;12.97;;;;;;;20.46;100.00;101215.56;5210188;28;20112;-76
2023/10/11 12:29:21;;;;;;;20.73;12.63;;;;;;;20.58;100.00;101223.38;5210507;28;20033;-76
2023/10/11 12:31:54;;;;;;;18.23;13.07;;;;;;;20.70;100.00;101224.81;5209874;28;20022;-76
2023/10/11 12:34:25;;;;;;;23.67;13.70;;;;;;;20.74;100.00;101231.50;5212168;28;20092;-76
2023/10/11 12:36:57;;;;;;;19.80;11.67;;;;;;;20.80;100.00;101238.88;5210988;28;21023;-76
2023/10/11 12:39:33;;;;;;;19.97;13.07;;;;;;;20.85;100.00;101243.78;5210853;28;20059;-76
2023/10/11 12:42:05;;;;;;;22.43;12.13;;;;;;;20.64;100.00;101209.44;5210431;28;20037;-76